sensor_id;sensor_type;location;lat;lon;timestamp;P1;durP1;ratioP1;P2;durP2;ratioP2
26113;SDS011;13966;48.828;9.064;2023-08-17T00:01:55;11.85;;;9.88;;
26113;SDS011;13966;48.828;9.064;2023-08-17T00:04:21;13.52;;;10.32;;
26113;SDS011;13966;48.828;9.064;2023-08-17T00:06:47;15.10;;;9.70;;
26113;SDS011;13966;48.828;9.064;2023-08-17T00:09:13;10.57;;;9.43;;
26113;SDS011;13966;48.828;9.064;2023-08-17T00:11:39;12.27;;;8.88;;
26113;SDS011;13966;48.828;9.064;2023-08-17T00:14:05;11.88;;;9.20;;
26113;SDS011;13966;48.828;9.064;2023-08-17T00:16:31;15.68;;;9.25;;
26113;SDS011;13966;48.828;9.064;2023-08-17T00:18:57;11.25;;;8.90;;
26113;SDS011;13966;48.828;9.064;2023-08-17T00:21:23;12.93;;;9.02;;
26113;SDS011;13966;48.828;9.064;2023-08-17T00:23:49;10.25;;;7.53;;
26113;SDS011;13966;48.828;9.064;2023-08-17T00:26:15;12.30;;;8.13;;
26113;SDS011;13966;48.828;9.064;2023-08-17T00:28:42;9.82;;;7.75;;
26113;SDS011;13966;48.828;9.064;2023-08-17T00:31:08;10.65;;;8.20;;
26113;SDS011;13966;48.828;9.064;2023-08-17T00:33:34;11.65;;;8.38;;
26113;SDS011;13966;48.828;9.064;2023-08-17T00:36:00;10.35;;;8.07;;
26113;SDS011;13966;48.828;9.064;2023-08-17T00:38:26;11.05;;;8.35;;
26113;SDS011;13966;48.828;9.064;2023-08-17T00:40:52;11.88;;;8.45;;
26113;SDS011;13966;48.828;9.064;2023-08-17T00:43:19;11.02;;;8.48;;
26113;SDS011;13966;48.828;9.064;2023-08-17T00:45:45;10.73;;;8.82;;
26113;SDS011;13966;48.828;9.064;2023-08-17T00:48:12;11.45;;;9.18;;
26113;SDS011;13966;48.828;9.064;2023-08-17T00:50:38;12.70;;;10.02;;
26113;SDS011;13966;48.828;9.064;2023-08-17T00:53:05;13.80;;;9.85;;
26113;SDS011;13966;48.828;9.064;2023-08-17T00:55:31;17.13;;;9.10;;
26113;SDS011;13966;48.828;9.064;2023-08-17T00:57:58;12.70;;;9.63;;
26113;SDS011;13966;48.828;9.064;2023-08-17T01:00:24;13.88;;;9.88;;
26113;SDS011;13966;48.828;9.064;2023-08-17T01:02:51;12.85;;;10.18;;
26113;SDS011;13966;48.828;9.064;2023-08-17T01:05:19;16.00;;;11.20;;
26113;SDS011;13966;48.828;9.064;2023-08-17T01:07:45;17.88;;;11.35;;
26113;SDS011;13966;48.828;9.064;2023-08-17T01:10:10;14.70;;;11.60;;
26113;SDS011;13966;48.828;9.064;2023-08-17T01:15:26;10.63;;;9.52;;
26113;SDS011;13966;48.828;9.064;2023-08-17T01:18:00;12.55;;;11.25;;
26113;SDS011;13966;48.828;9.064;2023-08-17T01:20:30;11.93;;;10.13;;
26113;SDS011;13966;48.828;9.064;2023-08-17T01:23:02;14.07;;;11.00;;
26113;SDS011;13966;48.828;9.064;2023-08-17T01:25:28;13.20;;;10.85;;
26113;SDS011;13966;48.828;9.064;2023-08-17T01:27:54;12.02;;;10.15;;
26113;SDS011;13966;48.828;9.064;2023-08-17T01:30:21;11.65;;;9.20;;
26113;SDS011;13966;48.828;9.064;2023-08-17T01:32:49;11.45;;;10.25;;
26113;SDS011;13966;48.828;9.064;2023-08-17T01:38:02;9.85;;;8.85;;
26113;SDS011;13966;48.828;9.064;2023-08-17T01:40:31;12.60;;;10.13;;
26113;SDS011;13966;48.828;9.064;2023-08-17T01:42:57;16.00;;;9.43;;
26113;SDS011;13966;48.828;9.064;2023-08-17T01:45:24;14.00;;;7.88;;
26113;SDS011;13966;48.828;9.064;2023-08-17T01:47:50;9.63;;;7.40;;
26113;SDS011;13966;48.828;9.064;2023-08-17T01:50:16;10.63;;;8.65;;
26113;SDS011;13966;48.828;9.064;2023-08-17T01:52:42;9.50;;;8.43;;
26113;SDS011;13966;48.828;9.064;2023-08-17T01:55:08;10.52;;;8.88;;
26113;SDS011;13966;48.828;9.064;2023-08-17T01:57:34;10.70;;;9.05;;
26113;SDS011;13966;48.828;9.064;2023-08-17T02:00:01;12.63;;;9.10;;
26113;SDS011;13966;48.828;9.064;2023-08-17T02:02:28;9.90;;;8.90;;
26113;SDS011;13966;48.828;9.064;2023-08-17T02:04:54;12.60;;;9.05;;
26113;SDS011;13966;48.828;9.064;2023-08-17T02:07:20;11.30;;;8.02;;
26113;SDS011;13966;48.828;9.064;2023-08-17T02:09:46;8.95;;;7.80;;
26113;SDS011;13966;48.828;9.064;2023-08-17T02:12:12;9.00;;;7.30;;
26113;SDS011;13966;48.828;9.064;2023-08-17T02:14:38;9.07;;;7.45;;
26113;SDS011;13966;48.828;9.064;2023-08-17T02:17:04;10.43;;;8.15;;
26113;SDS011;13966;48.828;9.064;2023-08-17T02:19:30;10.35;;;7.45;;
26113;SDS011;13966;48.828;9.064;2023-08-17T02:21:57;11.35;;;8.55;;
26113;SDS011;13966;48.828;9.064;2023-08-17T02:24:23;10.25;;;8.05;;
26113;SDS011;13966;48.828;9.064;2023-08-17T02:26:49;11.68;;;7.63;;
26113;SDS011;13966;48.828;9.064;2023-08-17T02:29:15;10.60;;;8.07;;
26113;SDS011;13966;48.828;9.064;2023-08-17T02:31:41;11.98;;;7.95;;
26113;SDS011;13966;48.828;9.064;2023-08-17T02:34:07;11.88;;;7.82;;
26113;SDS011;13966;48.828;9.064;2023-08-17T02:36:34;10.63;;;7.53;;
26113;SDS011;13966;48.828;9.064;2023-08-17T02:39:00;10.35;;;7.80;;
26113;SDS011;13966;48.828;9.064;2023-08-17T02:41:28;12.18;;;7.68;;
26113;SDS011;13966;48.828;9.064;2023-08-17T02:43:55;8.25;;;7.43;;
26113;SDS011;13966;48.828;9.064;2023-08-17T02:46:21;10.55;;;7.88;;
26113;SDS011;13966;48.828;9.064;2023-08-17T02:48:47;11.18;;;8.23;;
26113;SDS011;13966;48.828;9.064;2023-08-17T02:51:14;11.80;;;7.35;;
26113;SDS011;13966;48.828;9.064;2023-08-17T02:53:40;8.77;;;7.88;;
26113;SDS011;13966;48.828;9.064;2023-08-17T02:56:06;9.50;;;7.38;;
26113;SDS011;13966;48.828;9.064;2023-08-17T02:58:36;10.70;;;7.78;;
26113;SDS011;13966;48.828;9.064;2023-08-17T03:01:05;8.80;;;7.75;;
26113;SDS011;13966;48.828;9.064;2023-08-17T03:03:31;10.57;;;7.15;;
26113;SDS011;13966;48.828;9.064;2023-08-17T03:05:57;12.63;;;8.27;;
26113;SDS011;13966;48.828;9.064;2023-08-17T03:08:23;12.32;;;8.55;;
26113;SDS011;13966;48.828;9.064;2023-08-17T03:10:49;10.10;;;8.05;;
26113;SDS011;13966;48.828;9.064;2023-08-17T03:13:15;9.57;;;8.57;;
26113;SDS011;13966;48.828;9.064;2023-08-17T03:15:41;13.05;;;9.50;;
26113;SDS011;13966;48.828;9.064;2023-08-17T03:18:07;11.82;;;9.50;;
26113;SDS011;13966;48.828;9.064;2023-08-17T03:20:33;12.18;;;9.85;;
26113;SDS011;13966;48.828;9.064;2023-08-17T03:22:59;14.32;;;9.48;;
26113;SDS011;13966;48.828;9.064;2023-08-17T03:25:25;12.65;;;9.80;;
26113;SDS011;13966;48.828;9.064;2023-08-17T03:27:51;19.02;;;10.68;;
26113;SDS011;13966;48.828;9.064;2023-08-17T03:30:17;14.35;;;10.70;;
26113;SDS011;13966;48.828;9.064;2023-08-17T03:32:43;16.92;;;9.85;;
26113;SDS011;13966;48.828;9.064;2023-08-17T03:35:08;15.38;;;10.65;;
26113;SDS011;13966;48.828;9.064;2023-08-17T03:37:34;16.17;;;10.95;;
26113;SDS011;13966;48.828;9.064;2023-08-17T03:40:00;15.90;;;11.60;;
26113;SDS011;13966;48.828;9.064;2023-08-17T03:42:27;18.45;;;12.10;;
26113;SDS011;13966;48.828;9.064;2023-08-17T03:44:53;17.30;;;11.52;;
26113;SDS011;13966;48.828;9.064;2023-08-17T03:47:19;15.52;;;10.82;;
26113;SDS011;13966;48.828;9.064;2023-08-17T03:49:45;19.77;;;12.73;;
26113;SDS011;13966;48.828;9.064;2023-08-17T03:52:12;25.63;;;14.55;;
26113;SDS011;13966;48.828;9.064;2023-08-17T03:54:38;20.50;;;13.45;;
26113;SDS011;13966;48.828;9.064;2023-08-17T03:57:04;23.50;;;14.10;;
26113;SDS011;13966;48.828;9.064;2023-08-17T03:59:30;23.45;;;14.40;;
26113;SDS011;13966;48.828;9.064;2023-08-17T04:01:56;22.85;;;12.48;;
26113;SDS011;13966;48.828;9.064;2023-08-17T04:04:22;21.63;;;13.75;;
26113;SDS011;13966;48.828;9.064;2023-08-17T04:06:48;23.95;;;14.48;;
26113;SDS011;13966;48.828;9.064;2023-08-17T04:09:14;23.00;;;14.32;;
26113;SDS011;13966;48.828;9.064;2023-08-17T04:11:40;20.80;;;13.65;;
26113;SDS011;13966;48.828;9.064;2023-08-17T04:14:06;20.85;;;14.57;;
26113;SDS011;13966;48.828;9.064;2023-08-17T04:16:34;24.67;;;15.65;;
26113;SDS011;13966;48.828;9.064;2023-08-17T04:19:00;25.35;;;14.15;;
26113;SDS011;13966;48.828;9.064;2023-08-17T04:21:26;23.02;;;14.43;;
26113;SDS011;13966;48.828;9.064;2023-08-17T04:23:52;25.42;;;15.85;;
26113;SDS011;13966;48.828;9.064;2023-08-17T04:26:18;23.35;;;15.45;;
26113;SDS011;13966;48.828;9.064;2023-08-17T04:28:44;24.02;;;15.32;;
26113;SDS011;13966;48.828;9.064;2023-08-17T04:31:10;27.08;;;15.95;;
26113;SDS011;13966;48.828;9.064;2023-08-17T04:33:37;27.63;;;16.48;;
26113;SDS011;13966;48.828;9.064;2023-08-17T04:36:03;28.20;;;15.93;;
26113;SDS011;13966;48.828;9.064;2023-08-17T04:38:29;30.80;;;17.02;;
26113;SDS011;13966;48.828;9.064;2023-08-17T04:40:56;34.58;;;18.67;;
26113;SDS011;13966;48.828;9.064;2023-08-17T04:43:22;30.73;;;17.40;;
26113;SDS011;13966;48.828;9.064;2023-08-17T04:45:48;30.25;;;17.48;;
26113;SDS011;13966;48.828;9.064;2023-08-17T04:48:14;26.20;;;16.92;;
26113;SDS011;13966;48.828;9.064;2023-08-17T04:50:40;27.52;;;17.05;;
26113;SDS011;13966;48.828;9.064;2023-08-17T04:53:06;25.63;;;16.38;;
26113;SDS011;13966;48.828;9.064;2023-08-17T04:55:32;24.60;;;15.82;;
26113;SDS011;13966;48.828;9.064;2023-08-17T04:57:58;27.05;;;15.60;;
26113;SDS011;13966;48.828;9.064;2023-08-17T05:00:24;22.17;;;15.32;;
26113;SDS011;13966;48.828;9.064;2023-08-17T05:02:53;23.20;;;14.50;;
26113;SDS011;13966;48.828;9.064;2023-08-17T05:05:19;24.73;;;14.80;;
26113;SDS011;13966;48.828;9.064;2023-08-17T05:07:46;22.88;;;14.05;;
26113;SDS011;13966;48.828;9.064;2023-08-17T05:10:11;23.63;;;14.88;;
26113;SDS011;13966;48.828;9.064;2023-08-17T05:12:38;22.08;;;14.50;;
26113;SDS011;13966;48.828;9.064;2023-08-17T05:15:04;19.67;;;14.23;;
26113;SDS011;13966;48.828;9.064;2023-08-17T05:17:30;17.95;;;13.38;;
26113;SDS011;13966;48.828;9.064;2023-08-17T05:19:56;20.67;;;13.52;;
26113;SDS011;13966;48.828;9.064;2023-08-17T05:22:22;20.75;;;14.00;;
26113;SDS011;13966;48.828;9.064;2023-08-17T05:24:49;18.35;;;13.00;;
26113;SDS011;13966;48.828;9.064;2023-08-17T05:27:14;19.35;;;12.30;;
26113;SDS011;13966;48.828;9.064;2023-08-17T05:29:40;16.65;;;12.13;;
26113;SDS011;13966;48.828;9.064;2023-08-17T05:32:06;16.00;;;11.50;;
26113;SDS011;13966;48.828;9.064;2023-08-17T05:34:32;17.35;;;12.25;;
26113;SDS011;13966;48.828;9.064;2023-08-17T05:36:58;14.40;;;11.20;;
26113;SDS011;13966;48.828;9.064;2023-08-17T05:39:24;18.65;;;11.18;;
26113;SDS011;13966;48.828;9.064;2023-08-17T05:41:50;16.52;;;10.98;;
26113;SDS011;13966;48.828;9.064;2023-08-17T05:44:17;18.13;;;11.38;;
26113;SDS011;13966;48.828;9.064;2023-08-17T05:46:43;16.00;;;11.80;;
26113;SDS011;13966;48.828;9.064;2023-08-17T05:49:09;16.38;;;11.85;;
26113;SDS011;13966;48.828;9.064;2023-08-17T05:51:35;15.25;;;12.18;;
26113;SDS011;13966;48.828;9.064;2023-08-17T05:54:01;15.30;;;12.43;;
26113;SDS011;13966;48.828;9.064;2023-08-17T05:56:28;17.13;;;13.02;;
26113;SDS011;13966;48.828;9.064;2023-08-17T05:58:54;16.60;;;12.82;;
26113;SDS011;13966;48.828;9.064;2023-08-17T06:01:20;15.80;;;12.70;;
26113;SDS011;13966;48.828;9.064;2023-08-17T06:03:46;19.05;;;13.30;;
26113;SDS011;13966;48.828;9.064;2023-08-17T06:06:12;18.35;;;14.10;;
26113;SDS011;13966;48.828;9.064;2023-08-17T06:08:38;19.25;;;14.98;;
26113;SDS011;13966;48.828;9.064;2023-08-17T06:11:04;23.75;;;15.48;;
26113;SDS011;13966;48.828;9.064;2023-08-17T06:13:30;20.17;;;14.98;;
26113;SDS011;13966;48.828;9.064;2023-08-17T06:16:00;18.80;;;15.13;;
26113;SDS011;13966;48.828;9.064;2023-08-17T06:18:26;20.85;;;15.68;;
26113;SDS011;13966;48.828;9.064;2023-08-17T06:20:52;20.42;;;15.65;;
26113;SDS011;13966;48.828;9.064;2023-08-17T06:23:19;17.67;;;13.80;;
26113;SDS011;13966;48.828;9.064;2023-08-17T06:25:45;21.63;;;14.90;;
26113;SDS011;13966;48.828;9.064;2023-08-17T06:28:11;22.27;;;16.27;;
26113;SDS011;13966;48.828;9.064;2023-08-17T06:30:37;19.15;;;13.95;;
26113;SDS011;13966;48.828;9.064;2023-08-17T06:33:03;22.17;;;14.73;;
26113;SDS011;13966;48.828;9.064;2023-08-17T06:35:29;18.60;;;13.82;;
26113;SDS011;13966;48.828;9.064;2023-08-17T06:37:55;19.15;;;13.32;;
26113;SDS011;13966;48.828;9.064;2023-08-17T06:40:23;18.67;;;13.73;;
26113;SDS011;13966;48.828;9.064;2023-08-17T06:42:49;17.70;;;12.35;;
26113;SDS011;13966;48.828;9.064;2023-08-17T06:45:15;13.93;;;11.98;;
26113;SDS011;13966;48.828;9.064;2023-08-17T06:47:44;13.35;;;11.18;;
26113;SDS011;13966;48.828;9.064;2023-08-17T06:50:10;17.13;;;12.52;;
26113;SDS011;13966;48.828;9.064;2023-08-17T06:52:36;19.02;;;12.30;;
26113;SDS011;13966;48.828;9.064;2023-08-17T06:55:04;18.63;;;12.85;;
26113;SDS011;13966;48.828;9.064;2023-08-17T06:57:32;16.38;;;13.07;;
26113;SDS011;13966;48.828;9.064;2023-08-17T06:59:58;17.02;;;12.55;;
26113;SDS011;13966;48.828;9.064;2023-08-17T07:02:24;17.38;;;12.68;;
26113;SDS011;13966;48.828;9.064;2023-08-17T07:04:50;16.25;;;12.30;;
26113;SDS011;13966;48.828;9.064;2023-08-17T07:07:16;17.25;;;12.90;;
26113;SDS011;13966;48.828;9.064;2023-08-17T07:09:42;16.55;;;11.77;;
26113;SDS011;13966;48.828;9.064;2023-08-17T07:12:08;17.17;;;13.27;;
26113;SDS011;13966;48.828;9.064;2023-08-17T07:14:34;11.55;;;10.23;;
26113;SDS011;13966;48.828;9.064;2023-08-17T07:17:00;15.70;;;11.65;;
26113;SDS011;13966;48.828;9.064;2023-08-17T07:19:29;15.80;;;12.13;;
26113;SDS011;13966;48.828;9.064;2023-08-17T07:21:55;17.38;;;12.43;;
26113;SDS011;13966;48.828;9.064;2023-08-17T07:24:21;13.25;;;11.38;;
26113;SDS011;13966;48.828;9.064;2023-08-17T07:26:47;18.48;;;11.13;;
26113;SDS011;13966;48.828;9.064;2023-08-17T07:29:13;15.85;;;11.85;;
26113;SDS011;13966;48.828;9.064;2023-08-17T07:31:39;16.98;;;11.30;;
26113;SDS011;13966;48.828;9.064;2023-08-17T07:34:06;16.17;;;11.88;;
26113;SDS011;13966;48.828;9.064;2023-08-17T07:36:32;13.80;;;10.45;;
26113;SDS011;13966;48.828;9.064;2023-08-17T07:38:59;18.77;;;12.18;;
26113;SDS011;13966;48.828;9.064;2023-08-17T07:41:25;12.35;;;10.63;;
26113;SDS011;13966;48.828;9.064;2023-08-17T07:43:51;13.77;;;10.30;;
26113;SDS011;13966;48.828;9.064;2023-08-17T07:46:17;14.52;;;11.70;;
26113;SDS011;13966;48.828;9.064;2023-08-17T07:48:43;14.85;;;11.80;;
26113;SDS011;13966;48.828;9.064;2023-08-17T07:51:09;17.27;;;11.45;;
26113;SDS011;13966;48.828;9.064;2023-08-17T07:53:35;11.27;;;9.80;;
26113;SDS011;13966;48.828;9.064;2023-08-17T07:56:01;12.18;;;8.05;;
26113;SDS011;13966;48.828;9.064;2023-08-17T07:58:27;13.70;;;10.25;;
26113;SDS011;13966;48.828;9.064;2023-08-17T08:00:53;12.90;;;10.23;;
26113;SDS011;13966;48.828;9.064;2023-08-17T08:03:19;13.30;;;9.63;;
26113;SDS011;13966;48.828;9.064;2023-08-17T08:05:45;12.98;;;9.68;;
26113;SDS011;13966;48.828;9.064;2023-08-17T08:08:11;14.75;;;10.07;;
26113;SDS011;13966;48.828;9.064;2023-08-17T08:10:37;12.02;;;9.57;;
26113;SDS011;13966;48.828;9.064;2023-08-17T08:13:04;13.27;;;9.38;;
26113;SDS011;13966;48.828;9.064;2023-08-17T08:15:30;15.93;;;10.13;;
26113;SDS011;13966;48.828;9.064;2023-08-17T08:17:56;12.18;;;9.73;;
26113;SDS011;13966;48.828;9.064;2023-08-17T08:20:22;12.80;;;9.48;;
26113;SDS011;13966;48.828;9.064;2023-08-17T08:22:48;11.63;;;9.70;;
26113;SDS011;13966;48.828;9.064;2023-08-17T08:25:14;13.70;;;9.25;;
26113;SDS011;13966;48.828;9.064;2023-08-17T08:27:40;12.20;;;8.70;;
26113;SDS011;13966;48.828;9.064;2023-08-17T08:30:06;12.43;;;8.82;;
26113;SDS011;13966;48.828;9.064;2023-08-17T08:32:32;11.60;;;8.65;;
26113;SDS011;13966;48.828;9.064;2023-08-17T08:34:58;14.70;;;9.27;;
26113;SDS011;13966;48.828;9.064;2023-08-17T08:37:24;13.05;;;9.48;;
26113;SDS011;13966;48.828;9.064;2023-08-17T08:39:51;16.55;;;11.90;;
26113;SDS011;13966;48.828;9.064;2023-08-17T08:42:20;14.75;;;11.90;;
26113;SDS011;13966;48.828;9.064;2023-08-17T08:44:46;19.75;;;11.43;;
26113;SDS011;13966;48.828;9.064;2023-08-17T08:47:12;15.35;;;10.23;;
26113;SDS011;13966;48.828;9.064;2023-08-17T08:49:39;9.60;;;8.60;;
26113;SDS011;13966;48.828;9.064;2023-08-17T08:52:08;12.00;;;9.73;;
26113;SDS011;13966;48.828;9.064;2023-08-17T08:54:38;11.20;;;9.57;;
26113;SDS011;13966;48.828;9.064;2023-08-17T08:57:08;11.70;;;8.65;;
26113;SDS011;13966;48.828;9.064;2023-08-17T08:59:41;10.55;;;9.45;;
26113;SDS011;13966;48.828;9.064;2023-08-17T09:02:14;9.48;;;8.45;;
26113;SDS011;13966;48.828;9.064;2023-08-17T09:04:41;11.67;;;8.60;;
26113;SDS011;13966;48.828;9.064;2023-08-17T09:07:07;11.93;;;9.23;;
26113;SDS011;13966;48.828;9.064;2023-08-17T09:09:34;16.30;;;8.93;;
26113;SDS011;13966;48.828;9.064;2023-08-17T09:12:01;11.00;;;8.10;;
26113;SDS011;13966;48.828;9.064;2023-08-17T09:14:27;11.30;;;7.95;;
26113;SDS011;13966;48.828;9.064;2023-08-17T09:16:53;12.52;;;8.77;;
26113;SDS011;13966;48.828;9.064;2023-08-17T09:19:19;10.75;;;9.25;;
26113;SDS011;13966;48.828;9.064;2023-08-17T09:21:48;12.45;;;9.82;;
26113;SDS011;13966;48.828;9.064;2023-08-17T09:24:14;9.32;;;8.32;;
26113;SDS011;13966;48.828;9.064;2023-08-17T09:26:40;13.68;;;8.35;;
26113;SDS011;13966;48.828;9.064;2023-08-17T09:29:18;11.07;;;7.85;;
26113;SDS011;13966;48.828;9.064;2023-08-17T09:31:45;9.63;;;8.43;;
26113;SDS011;13966;48.828;9.064;2023-08-17T09:34:11;13.73;;;8.50;;
26113;SDS011;13966;48.828;9.064;2023-08-17T09:36:37;11.43;;;8.35;;
26113;SDS011;13966;48.828;9.064;2023-08-17T09:39:03;9.23;;;7.32;;
26113;SDS011;13966;48.828;9.064;2023-08-17T09:41:29;11.98;;;8.40;;
26113;SDS011;13966;48.828;9.064;2023-08-17T09:43:55;10.30;;;8.20;;
26113;SDS011;13966;48.828;9.064;2023-08-17T09:46:21;11.43;;;8.70;;
26113;SDS011;13966;48.828;9.064;2023-08-17T09:48:48;10.77;;;7.97;;
26113;SDS011;13966;48.828;9.064;2023-08-17T09:51:15;13.93;;;10.02;;
26113;SDS011;13966;48.828;9.064;2023-08-17T09:53:41;11.88;;;8.48;;
26113;SDS011;13966;48.828;9.064;2023-08-17T09:56:07;7.72;;;6.35;;
26113;SDS011;13966;48.828;9.064;2023-08-17T09:58:35;8.70;;;7.50;;
26113;SDS011;13966;48.828;9.064;2023-08-17T10:01:03;11.32;;;8.32;;
26113;SDS011;13966;48.828;9.064;2023-08-17T10:03:29;9.25;;;7.00;;
26113;SDS011;13966;48.828;9.064;2023-08-17T10:05:59;12.77;;;7.95;;
26113;SDS011;13966;48.828;9.064;2023-08-17T10:08:27;11.93;;;7.93;;
26113;SDS011;13966;48.828;9.064;2023-08-17T10:10:56;10.00;;;7.32;;
26113;SDS011;13966;48.828;9.064;2023-08-17T10:13:37;8.07;;;7.25;;
26113;SDS011;13966;48.828;9.064;2023-08-17T10:16:14;11.75;;;8.18;;
26113;SDS011;13966;48.828;9.064;2023-08-17T10:18:45;8.98;;;7.15;;
26113;SDS011;13966;48.828;9.064;2023-08-17T10:21:17;8.30;;;6.90;;
26113;SDS011;13966;48.828;9.064;2023-08-17T10:23:46;8.07;;;6.10;;
26113;SDS011;13966;48.828;9.064;2023-08-17T10:26:13;7.55;;;6.75;;
26113;SDS011;13966;48.828;9.064;2023-08-17T10:28:39;12.93;;;8.40;;
26113;SDS011;13966;48.828;9.064;2023-08-17T10:31:05;10.90;;;7.55;;
26113;SDS011;13966;48.828;9.064;2023-08-17T10:33:32;9.55;;;7.07;;
26113;SDS011;13966;48.828;9.064;2023-08-17T10:35:59;12.35;;;7.22;;
26113;SDS011;13966;48.828;9.064;2023-08-17T10:38:26;12.23;;;7.00;;
26113;SDS011;13966;48.828;9.064;2023-08-17T10:41:07;8.35;;;7.07;;
26113;SDS011;13966;48.828;9.064;2023-08-17T10:43:33;12.40;;;5.53;;
26113;SDS011;13966;48.828;9.064;2023-08-17T10:46:15;9.55;;;6.55;;
26113;SDS011;13966;48.828;9.064;2023-08-17T10:48:43;10.00;;;6.07;;
26113;SDS011;13966;48.828;9.064;2023-08-17T10:51:09;9.18;;;6.10;;
26113;SDS011;13966;48.828;9.064;2023-08-17T10:53:38;10.98;;;6.65;;
26113;SDS011;13966;48.828;9.064;2023-08-17T10:56:07;9.73;;;4.93;;
26113;SDS011;13966;48.828;9.064;2023-08-17T10:58:34;7.47;;;4.97;;
26113;SDS011;13966;48.828;9.064;2023-08-17T11:01:00;6.95;;;4.72;;
26113;SDS011;13966;48.828;9.064;2023-08-17T11:03:26;7.75;;;5.60;;
26113;SDS011;13966;48.828;9.064;2023-08-17T11:05:53;5.60;;;4.97;;
26113;SDS011;13966;48.828;9.064;2023-08-17T11:13:35;8.63;;;5.35;;
26113;SDS011;13966;48.828;9.064;2023-08-17T11:16:02;6.53;;;5.55;;
26113;SDS011;13966;48.828;9.064;2023-08-17T11:18:28;6.53;;;5.45;;
26113;SDS011;13966;48.828;9.064;2023-08-17T11:20:54;5.72;;;5.07;;
26113;SDS011;13966;48.828;9.064;2023-08-17T11:23:20;7.45;;;5.57;;
26113;SDS011;13966;48.828;9.064;2023-08-17T11:25:46;7.05;;;5.25;;
26113;SDS011;13966;48.828;9.064;2023-08-17T11:28:13;6.07;;;4.65;;
26113;SDS011;13966;48.828;9.064;2023-08-17T11:30:39;6.50;;;4.85;;
26113;SDS011;13966;48.828;9.064;2023-08-17T11:33:06;5.78;;;4.10;;
26113;SDS011;13966;48.828;9.064;2023-08-17T11:35:33;8.77;;;4.80;;
26113;SDS011;13966;48.828;9.064;2023-08-17T11:37:59;7.90;;;4.97;;
26113;SDS011;13966;48.828;9.064;2023-08-17T11:40:25;9.20;;;4.60;;
26113;SDS011;13966;48.828;9.064;2023-08-17T11:42:52;6.50;;;5.30;;
26113;SDS011;13966;48.828;9.064;2023-08-17T11:45:18;6.20;;;5.40;;
26113;SDS011;13966;48.828;9.064;2023-08-17T11:47:46;10.30;;;5.05;;
26113;SDS011;13966;48.828;9.064;2023-08-17T11:50:12;4.93;;;4.32;;
26113;SDS011;13966;48.828;9.064;2023-08-17T11:52:38;7.22;;;4.88;;
26113;SDS011;13966;48.828;9.064;2023-08-17T11:55:05;7.03;;;4.97;;
26113;SDS011;13966;48.828;9.064;2023-08-17T11:57:32;8.95;;;5.40;;
26113;SDS011;13966;48.828;9.064;2023-08-17T11:59:58;6.18;;;4.85;;
26113;SDS011;13966;48.828;9.064;2023-08-17T12:02:25;5.78;;;3.85;;
26113;SDS011;13966;48.828;9.064;2023-08-17T12:04:51;4.13;;;3.40;;
26113;SDS011;13966;48.828;9.064;2023-08-17T12:07:19;6.43;;;3.75;;
26113;SDS011;13966;48.828;9.064;2023-08-17T12:09:46;7.20;;;3.78;;
26113;SDS011;13966;48.828;9.064;2023-08-17T12:12:12;5.82;;;3.70;;
26113;SDS011;13966;48.828;9.064;2023-08-17T12:14:41;6.72;;;3.47;;
26113;SDS011;13966;48.828;9.064;2023-08-17T12:17:13;8.77;;;3.60;;
26113;SDS011;13966;48.828;9.064;2023-08-17T12:19:41;6.07;;;4.00;;
26113;SDS011;13966;48.828;9.064;2023-08-17T12:22:07;6.60;;;4.53;;
26113;SDS011;13966;48.828;9.064;2023-08-17T12:24:33;7.90;;;4.38;;
26113;SDS011;13966;48.828;9.064;2023-08-17T12:27:01;6.32;;;4.78;;
26113;SDS011;13966;48.828;9.064;2023-08-17T12:29:27;7.25;;;4.88;;
26113;SDS011;13966;48.828;9.064;2023-08-17T12:31:56;7.22;;;4.90;;
26113;SDS011;13966;48.828;9.064;2023-08-17T12:34:22;5.13;;;3.92;;
26113;SDS011;13966;48.828;9.064;2023-08-17T12:36:49;10.63;;;4.78;;
26113;SDS011;13966;48.828;9.064;2023-08-17T12:39:15;9.02;;;4.75;;
26113;SDS011;13966;48.828;9.064;2023-08-17T12:41:41;5.13;;;4.15;;
26113;SDS011;13966;48.828;9.064;2023-08-17T12:44:08;7.65;;;5.05;;
26113;SDS011;13966;48.828;9.064;2023-08-17T12:46:38;7.22;;;4.03;;
26113;SDS011;13966;48.828;9.064;2023-08-17T12:49:04;7.93;;;4.30;;
26113;SDS011;13966;48.828;9.064;2023-08-17T12:51:30;5.95;;;4.05;;
26113;SDS011;13966;48.828;9.064;2023-08-17T12:53:56;5.60;;;4.20;;
26113;SDS011;13966;48.828;9.064;2023-08-17T12:56:22;8.52;;;4.43;;
26113;SDS011;13966;48.828;9.064;2023-08-17T12:58:48;7.30;;;4.57;;
26113;SDS011;13966;48.828;9.064;2023-08-17T13:01:14;7.50;;;4.63;;
26113;SDS011;13966;48.828;9.064;2023-08-17T13:03:40;8.93;;;5.38;;
26113;SDS011;13966;48.828;9.064;2023-08-17T13:06:07;7.75;;;5.45;;
26113;SDS011;13966;48.828;9.064;2023-08-17T13:08:33;8.35;;;5.82;;
26113;SDS011;13966;48.828;9.064;2023-08-17T13:10:59;9.48;;;6.57;;
26113;SDS011;13966;48.828;9.064;2023-08-17T13:13:25;10.95;;;6.72;;
26113;SDS011;13966;48.828;9.064;2023-08-17T13:15:52;12.43;;;7.07;;
26113;SDS011;13966;48.828;9.064;2023-08-17T13:18:18;12.85;;;7.40;;
26113;SDS011;13966;48.828;9.064;2023-08-17T13:20:44;9.05;;;6.95;;
26113;SDS011;13966;48.828;9.064;2023-08-17T13:23:10;9.65;;;7.40;;
26113;SDS011;13966;48.828;9.064;2023-08-17T13:25:36;11.68;;;7.57;;
26113;SDS011;13966;48.828;9.064;2023-08-17T13:28:02;13.27;;;8.30;;
26113;SDS011;13966;48.828;9.064;2023-08-17T13:30:28;9.73;;;7.40;;
26113;SDS011;13966;48.828;9.064;2023-08-17T13:32:55;8.32;;;7.45;;
26113;SDS011;13966;48.828;9.064;2023-08-17T13:35:21;9.95;;;6.82;;
26113;SDS011;13966;48.828;9.064;2023-08-17T13:37:53;8.02;;;6.93;;
26113;SDS011;13966;48.828;9.064;2023-08-17T13:40:19;7.75;;;6.95;;
26113;SDS011;13966;48.828;9.064;2023-08-17T13:42:45;9.45;;;6.85;;
26113;SDS011;13966;48.828;9.064;2023-08-17T13:45:11;10.38;;;7.82;;
26113;SDS011;13966;48.828;9.064;2023-08-17T13:47:37;8.55;;;7.30;;
26113;SDS011;13966;48.828;9.064;2023-08-17T13:50:03;8.10;;;7.03;;
26113;SDS011;13966;48.828;9.064;2023-08-17T13:52:29;9.77;;;7.93;;
26113;SDS011;13966;48.828;9.064;2023-08-17T13:54:55;11.60;;;8.35;;
26113;SDS011;13966;48.828;9.064;2023-08-17T13:57:21;11.15;;;8.50;;
26113;SDS011;13966;48.828;9.064;2023-08-17T13:59:47;9.38;;;7.88;;
26113;SDS011;13966;48.828;9.064;2023-08-17T14:02:13;16.55;;;8.35;;
26113;SDS011;13966;48.828;9.064;2023-08-17T14:04:39;12.98;;;7.75;;
26113;SDS011;13966;48.828;9.064;2023-08-17T14:07:05;12.30;;;8.43;;
26113;SDS011;13966;48.828;9.064;2023-08-17T14:09:31;11.93;;;7.32;;
26113;SDS011;13966;48.828;9.064;2023-08-17T14:11:57;9.85;;;7.95;;
26113;SDS011;13966;48.828;9.064;2023-08-17T14:14:24;12.93;;;8.60;;
26113;SDS011;13966;48.828;9.064;2023-08-17T14:16:50;12.75;;;8.88;;
26113;SDS011;13966;48.828;9.064;2023-08-17T14:19:16;11.35;;;8.73;;
26113;SDS011;13966;48.828;9.064;2023-08-17T14:21:42;11.48;;;8.05;;
26113;SDS011;13966;48.828;9.064;2023-08-17T14:24:08;9.50;;;7.60;;
26113;SDS011;13966;48.828;9.064;2023-08-17T14:26:34;9.75;;;7.75;;
26113;SDS011;13966;48.828;9.064;2023-08-17T14:29:00;8.93;;;8.02;;
26113;SDS011;13966;48.828;9.064;2023-08-17T14:31:26;12.88;;;8.23;;
26113;SDS011;13966;48.828;9.064;2023-08-17T14:33:52;11.20;;;8.93;;
26113;SDS011;13966;48.828;9.064;2023-08-17T14:36:18;13.30;;;9.27;;
26113;SDS011;13966;48.828;9.064;2023-08-17T14:38:44;11.32;;;8.40;;
26113;SDS011;13966;48.828;9.064;2023-08-17T14:41:10;8.90;;;7.85;;